createdAt,value
2019-04-21T00:02:18.607Z,35.34
2019-04-21T00:05:00.807Z,36.69
2019-04-21T00:07:36.279Z,36.34
2019-04-21T00:10:16.747Z,36.62
2019-04-21T00:12:43.101Z,36.73
2019-04-21T00:15:09.775Z,36.43
2019-04-21T00:17:35.174Z,36.56
2019-04-21T00:20:22.916Z,36.33
2019-04-21T00:22:53.556Z,36.46
2019-04-21T00:25:30.930Z,36.71
2019-04-21T00:28:19.638Z,36.75
2019-04-21T00:30:47.339Z,36.73
2019-04-21T00:33:11.438Z,36.83
2019-04-21T00:35:41.421Z,36.68
2019-04-21T00:38:25.185Z,36.98
2019-04-21T00:40:59.958Z,36.98
2019-04-21T00:43:28.408Z,36.86
2019-04-21T00:45:59.954Z,36.82
2019-04-21T00:48:49.767Z,36.70
2019-04-21T00:51:33.411Z,36.70
2019-04-21T00:54:04.014Z,37.09
2019-04-21T00:56:36.601Z,36.90
2019-04-21T00:59:18.253Z,37.05
2019-04-21T01:01:46.221Z,37.05
2019-04-21T01:04:18.156Z,37.24
2019-04-21T01:07:00.744Z,36.99
2019-04-21T01:09:29.158Z,37.08
2019-04-21T01:12:03.729Z,37.35
2019-04-21T01:14:43.534Z,37.47
2019-04-21T01:17:13.083Z,37.54
2019-04-21T01:19:42.260Z,37.43
2019-04-21T01:21:59.290Z,37.32
2019-04-21T01:24:37.486Z,37.32
2019-04-21T01:27:15.923Z,37.41
2019-04-21T01:30:01.225Z,37.30
2019-04-21T01:32:35.903Z,37.48
2019-04-21T01:35:08.593Z,37.48
2019-04-21T01:37:44.155Z,37.51
2019-04-21T01:40:25.983Z,37.60
2019-04-21T01:42:52.946Z,37.53
2019-04-21T01:45:24.593Z,37.53
2019-04-21T01:47:59.677Z,37.78
2019-04-21T01:50:30.027Z,37.78
2019-04-21T01:53:17.583Z,37.75
2019-04-21T01:56:11.731Z,37.75
2019-04-21T01:58:39.809Z,37.89
2019-04-21T02:01:24.197Z,37.89
2019-04-21T02:03:57.094Z,37.92
2019-04-21T02:06:38.778Z,37.82
2019-04-21T02:09:05.838Z,37.97
2019-04-21T02:11:47.039Z,38.12
2019-04-21T02:14:15.277Z,37.79
2019-04-21T02:16:47.796Z,38.01
2019-04-21T02:19:19.790Z,38.45
2019-04-21T02:21:47.816Z,38.28
2019-04-21T02:24:42.659Z,38.28
2019-04-21T02:27:08.568Z,38.26
2019-04-21T02:29:41.200Z,38.78
2019-04-21T02:35:04.088Z,38.62
2019-04-21T02:42:46.147Z,38.01
2019-04-21T02:47:57.307Z,37.86
2019-04-21T02:53:11.774Z,38.61
2019-04-21T02:55:28.969Z,38.75
2019-04-21T02:58:09.770Z,38.53
2019-04-21T03:00:56.959Z,38.53
2019-04-21T03:03:36.509Z,38.62
2019-04-21T03:06:29.139Z,38.62
2019-04-21T03:11:20.441Z,38.73
2019-04-21T03:14:05.477Z,38.66
2019-04-21T03:16:27.902Z,38.66
2019-04-21T03:19:08.093Z,38.89
2019-04-21T03:21:38.777Z,39.03
2019-04-21T03:29:38.539Z,38.80
2019-04-21T03:32:25.754Z,38.79
2019-04-21T03:34:56.716Z,38.87
2019-04-21T03:39:48.493Z,38.91
2019-04-21T03:42:26.997Z,38.82
2019-04-21T03:44:44.959Z,38.83
2019-04-21T03:47:22.949Z,38.52
2019-04-21T03:52:30.198Z,38.86
2019-04-21T04:09:37.609Z,38.82
2019-04-21T04:11:56.560Z,38.82
2019-04-21T04:14:39.983Z,38.90
2019-04-21T04:22:20.847Z,39.00
2019-04-21T04:24:57.530Z,38.85
2019-04-21T04:27:49.344Z,38.97
2019-04-21T04:30:07.980Z,39.05
2019-04-21T04:32:40.941Z,39.05
2019-04-21T04:35:14.452Z,38.83
2019-04-21T04:37:44.593Z,38.40
2019-04-21T04:40:30.986Z,38.40
2019-04-21T04:43:17.548Z,38.68
2019-04-21T04:45:52.168Z,38.95
2019-04-21T04:48:19.432Z,38.53
2019-04-21T04:50:53.548Z,38.31
2019-04-21T04:53:33.726Z,38.36
2019-04-21T04:56:03.701Z,38.57
2019-04-21T04:59:10.643Z,38.49
2019-04-21T05:01:26.753Z,38.49
2019-04-21T05:03:56.577Z,36.51
2019-04-21T05:14:18.316Z,33.05
2019-04-21T05:16:46.686Z,32.36
2019-04-21T05:19:20.815Z,32.36
2019-04-21T05:21:45.341Z,32.66
2019-04-21T05:24:18.912Z,32.33
2019-04-21T05:26:49.417Z,32.17
2019-04-21T05:29:37.551Z,31.65
2019-04-21T05:32:31.999Z,31.65
2019-04-21T05:35:07.654Z,31.31
2019-04-21T05:38:10.198Z,31.45
2019-04-21T05:40:38.896Z,31.66
2019-04-21T05:43:17.548Z,30.78
2019-04-21T05:45:53.047Z,31.33
2019-04-21T05:48:50.660Z,31.38
2019-04-21T05:51:16.475Z,30.85
2019-04-21T05:53:59.895Z,30.85
2019-04-21T05:56:31.812Z,30.80
2019-04-21T05:58:58.081Z,31.13
2019-04-21T06:04:14.184Z,30.71
2019-04-21T06:06:49.243Z,30.75
2019-04-21T06:09:19.774Z,30.75
2019-04-21T06:11:52.670Z,31.35
2019-04-21T06:14:30.494Z,30.96
2019-04-21T06:17:01.553Z,30.86
2019-04-21T06:19:41.381Z,31.53
2019-04-21T06:22:09.909Z,31.41
2019-04-21T06:24:58.390Z,31.41
2019-04-21T06:27:19.245Z,31.56
2019-04-21T06:29:50.128Z,31.24
2019-04-21T06:40:21.606Z,32.37
2019-04-21T06:42:51.677Z,33.02
2019-04-21T06:45:25.209Z,33.14
2019-04-21T06:50:33.628Z,33.29
2019-04-21T06:53:23.805Z,32.91
2019-04-21T06:55:35.219Z,33.92
2019-04-21T06:58:05.747Z,32.93
2019-04-21T07:00:41.318Z,33.57
2019-04-21T07:03:20.735Z,35.28
2019-04-21T07:05:56.090Z,34.10
2019-04-21T07:08:44.696Z,35.13
2019-04-21T07:10:56.760Z,34.39
2019-04-21T07:13:32.190Z,34.88
2019-04-21T07:16:13.918Z,35.30
2019-04-21T07:18:47.464Z,35.30
2019-04-21T07:21:12.759Z,35.41
2019-04-21T07:23:55.638Z,35.41
2019-04-21T07:26:25.479Z,35.27
2019-04-21T07:29:02.925Z,35.27
2019-04-21T07:31:40.426Z,35.16
2019-04-21T07:34:07.942Z,34.68
2019-04-21T07:39:12.871Z,35.19
2019-04-21T07:41:46.917Z,33.96
2019-04-21T07:44:15.026Z,34.44
2019-04-21T07:46:45.910Z,33.34
2019-04-21T07:49:50.128Z,34.77
2019-04-21T07:52:39.568Z,34.77
2019-04-21T07:57:42.552Z,34.66
2019-04-21T08:00:45.291Z,34.73
2019-04-21T08:03:05.126Z,34.69
2019-04-21T08:05:32.430Z,34.97
2019-04-21T08:07:58.669Z,34.37
2019-04-21T08:10:37.767Z,33.92
2019-04-21T08:13:18.817Z,34.98
2019-04-21T08:16:07.365Z,34.89
2019-04-21T08:18:28.693Z,34.07
2019-04-21T08:20:56.465Z,34.07
2019-04-21T08:23:32.478Z,33.09
2019-04-21T08:26:07.872Z,35.02
2019-04-21T08:28:40.665Z,32.79
2019-04-21T08:31:13.999Z,33.70
2019-04-21T08:33:56.482Z,34.88
2019-04-21T08:36:25.037Z,35.23
2019-04-21T08:38:58.282Z,34.51
2019-04-21T08:41:30.246Z,35.36
2019-04-21T08:44:05.200Z,35.32
2019-04-21T08:46:40.516Z,33.94
2019-04-21T08:49:10.896Z,35.11
2019-04-21T08:51:54.926Z,34.62
2019-04-21T08:54:21.843Z,34.61
2019-04-21T08:57:19.763Z,32.91
2019-04-21T09:00:05.088Z,32.91
2019-04-21T09:02:52.478Z,34.31
2019-04-21T09:05:19.165Z,34.31
2019-04-21T09:08:10.904Z,33.27
2019-04-21T09:10:32.558Z,33.27
2019-04-21T09:12:58.813Z,34.46
2019-04-21T09:15:35.062Z,33.85
2019-04-21T09:18:05.299Z,32.71
2019-04-21T09:20:47.125Z,33.34
2019-04-21T09:23:19.316Z,33.34
2019-04-21T09:25:55.462Z,32.84
2019-04-21T09:28:19.901Z,32.30
2019-04-21T09:30:48.883Z,34.34
2019-04-21T09:33:16.039Z,33.24
2019-04-21T09:35:55.548Z,33.70
2019-04-21T09:38:34.148Z,30.84
2019-04-21T09:40:58.333Z,33.24
2019-04-21T09:43:40.071Z,33.24
2019-04-21T09:46:06.110Z,31.43
2019-04-21T09:48:50.104Z,31.33
2019-04-21T09:51:13.050Z,30.13
2019-04-21T09:53:53.559Z,30.13
2019-04-21T09:56:31.446Z,31.09
2019-04-21T09:59:07.210Z,29.88
2019-04-21T10:01:36.427Z,30.99
2019-04-21T10:04:04.324Z,32.07
2019-04-21T10:06:35.018Z,29.47
2019-04-21T10:09:13.873Z,29.47
2019-04-21T10:11:43.862Z,30.20
2019-04-21T10:14:17.529Z,27.16
2019-04-21T10:17:08.432Z,31.96
2019-04-21T10:19:41.946Z,30.56
2019-04-21T10:22:14.919Z,29.27
2019-04-21T10:24:47.059Z,30.67
2019-04-21T10:27:21.083Z,30.35
2019-04-21T10:29:54.070Z,30.98
2019-04-21T10:32:26.323Z,31.15
2019-04-21T10:34:59.206Z,31.73
2019-04-21T10:37:42.763Z,29.71
2019-04-21T10:40:07.407Z,30.76
2019-04-21T10:42:40.485Z,29.79
2019-04-21T10:45:12.846Z,29.79
2019-04-21T10:47:45.286Z,30.39
2019-04-21T10:50:18.368Z,31.09
2019-04-21T10:53:18.903Z,30.71
2019-04-21T10:56:04.402Z,30.24
2019-04-21T10:58:34.051Z,32.70
2019-04-21T11:01:31.362Z,31.46
2019-04-21T11:04:38.579Z,32.28
2019-04-21T11:07:53.080Z,32.28
2019-04-21T11:10:14.071Z,32.46
2019-04-21T11:12:48.006Z,29.87
2019-04-21T11:15:21.148Z,31.22
2019-04-21T11:17:54.473Z,29.87
2019-04-21T11:20:28.812Z,30.76
2019-04-21T11:23:01.827Z,30.59
2019-04-21T11:25:35.839Z,32.83
2019-04-21T11:28:09.115Z,30.55
2019-04-21T11:30:42.432Z,29.50
2019-04-21T11:33:15.367Z,30.31
2019-04-21T11:35:48.933Z,31.06
2019-04-21T11:38:30.451Z,31.06
2019-04-21T11:41:03.543Z,30.74
2019-04-21T11:43:37.047Z,29.05
2019-04-21T11:46:10.830Z,29.05
2019-04-21T11:48:44.085Z,30.34
2019-04-21T11:51:29.095Z,30.33
2019-04-21T11:54:01.875Z,29.81
2019-04-21T11:56:34.817Z,30.25
2019-04-21T11:59:08.053Z,29.03
2019-04-21T12:01:41.437Z,29.32
2019-04-21T12:04:13.951Z,32.01
2019-04-21T12:06:47.706Z,32.01
2019-04-21T12:09:19.298Z,31.50
2019-04-21T12:11:53.588Z,28.72
2019-04-21T12:14:25.956Z,30.23
2019-04-21T12:16:59.340Z,29.09
2019-04-21T12:19:32.597Z,28.27
2019-04-21T12:22:10.977Z,28.27
2019-04-21T12:24:39.569Z,29.98
2019-04-21T12:27:12.016Z,31.59
2019-04-21T12:29:46.066Z,29.36
2019-04-21T12:32:48.567Z,27.54
2019-04-21T12:35:21.853Z,29.29
2019-04-21T12:37:55.011Z,31.09
2019-04-21T12:40:28.465Z,28.83
2019-04-21T12:43:01.343Z,27.09
2019-04-21T12:45:35.834Z,27.09
2019-04-21T12:48:08.462Z,29.28
2019-04-21T12:50:41.717Z,29.33
2019-04-21T12:53:15.999Z,27.70
2019-04-21T12:55:49.808Z,30.72
2019-04-21T12:58:23.483Z,28.96
2019-04-21T13:00:55.148Z,30.16
2019-04-21T13:03:28.675Z,31.83
2019-04-21T13:06:01.888Z,29.20
2019-04-21T13:08:45.582Z,28.00
2019-04-21T13:11:11.319Z,27.49
2019-04-21T13:13:42.366Z,27.49
2019-04-21T13:16:15.671Z,27.06
2019-04-21T13:18:49.153Z,29.36
2019-04-21T13:21:22.413Z,29.49
2019-04-21T13:23:54.807Z,27.90
2019-04-21T13:26:37.347Z,26.14
2019-04-21T13:29:02.695Z,31.21
2019-04-21T13:31:34.551Z,27.38
2019-04-21T13:34:08.150Z,27.75
2019-04-21T13:36:41.419Z,27.01
2019-04-21T13:40:03.468Z,28.03
2019-04-21T13:42:23.742Z,28.03
2019-04-21T13:44:46.893Z,28.19
2019-04-21T13:47:19.111Z,28.19
2019-04-21T13:49:51.423Z,28.95
2019-04-21T13:52:24.704Z,31.20
2019-04-21T13:54:57.891Z,32.25
2019-04-21T13:57:30.528Z,31.62
2019-04-21T14:00:03.612Z,28.76
2019-04-21T14:02:36.581Z,28.58
2019-04-21T14:05:11.779Z,29.90
2019-04-21T14:07:44.050Z,29.90
2019-04-21T14:10:17.918Z,28.81
2019-04-21T14:12:50.902Z,28.47
2019-04-21T14:15:24.172Z,29.01
2019-04-21T14:17:58.357Z,28.03
2019-04-21T14:20:31.235Z,28.88
2019-04-21T14:23:15.737Z,29.93
2019-04-21T14:25:37.898Z,30.92
2019-04-21T14:28:10.271Z,30.92
2019-04-21T14:30:44.186Z,28.76
2019-04-21T14:33:18.192Z,32.23
2019-04-21T14:35:52.625Z,29.11
2019-04-21T14:38:25.086Z,30.84
2019-04-21T14:40:57.726Z,29.51
2019-04-21T14:43:29.964Z,27.40
2019-04-21T14:46:31.236Z,28.32
2019-04-21T14:49:26.956Z,31.99
2019-04-21T14:52:03.459Z,28.82
2019-04-21T14:54:50.929Z,29.58
2019-04-21T14:57:25.090Z,29.77
2019-04-21T14:59:58.580Z,29.80
2019-04-21T15:02:31.879Z,29.75
2019-04-21T15:05:04.265Z,29.75
2019-04-21T15:07:37.149Z,29.92
2019-04-21T15:10:17.963Z,28.92
2019-04-21T15:12:43.823Z,32.66
2019-04-21T15:15:16.055Z,32.66
2019-04-21T15:17:49.522Z,29.76
2019-04-21T15:20:23.393Z,29.54
2019-04-21T15:22:56.564Z,29.68
2019-04-21T15:25:27.969Z,29.68
2019-04-21T15:28:01.219Z,27.48
2019-04-21T15:30:34.843Z,29.06
2019-04-21T15:33:08.587Z,30.62
2019-04-21T15:35:40.666Z,31.24
2019-04-21T15:38:12.188Z,31.86
2019-04-21T15:40:55.034Z,29.87
2019-04-21T15:43:22.413Z,31.17
2019-04-21T15:45:54.892Z,30.05
2019-04-21T15:48:27.104Z,30.05
2019-04-21T15:51:05.611Z,28.49
2019-04-21T15:53:37.606Z,31.11
2019-04-21T15:56:15.110Z,30.24
2019-04-21T15:58:56.818Z,30.24
2019-04-21T16:01:48.459Z,31.14
2019-04-21T16:04:21.319Z,31.82
2019-04-21T16:06:55.341Z,29.98
2019-04-21T16:09:30.618Z,30.98
2019-04-21T16:12:01.890Z,30.98
2019-04-21T16:14:34.547Z,29.73
2019-04-21T16:17:07.510Z,28.31
2019-04-21T16:19:39.961Z,29.25
2019-04-21T16:22:13.010Z,29.25
2019-04-21T16:24:47.719Z,29.21
2019-04-21T16:27:21.391Z,29.55
2019-04-21T16:29:55.011Z,30.14
2019-04-21T16:32:28.021Z,30.14
2019-04-21T16:35:05.371Z,29.22
2019-04-21T16:37:35.441Z,29.57
2019-04-21T16:40:09.475Z,30.22
2019-04-21T16:42:42.572Z,30.59
2019-04-21T16:45:15.056Z,30.59
2019-04-21T16:47:49.100Z,29.73
2019-04-21T16:50:21.635Z,29.12
2019-04-21T16:53:17.945Z,30.37
2019-04-21T16:56:15.347Z,30.40
2019-04-21T16:58:50.555Z,29.65
2019-04-21T17:01:29.159Z,29.00
2019-04-21T17:04:02.233Z,29.00
2019-04-21T17:06:35.362Z,28.78
2019-04-21T17:09:10.273Z,30.11
2019-04-21T17:11:44.757Z,29.09
2019-04-21T17:14:31.205Z,30.09
2019-04-21T17:17:16.306Z,30.35
2019-04-21T17:19:29.911Z,30.35
2019-04-21T17:22:03.823Z,29.34
2019-04-21T17:24:36.423Z,29.34
2019-04-21T17:27:09.110Z,30.01
2019-04-21T17:29:43.052Z,31.77
2019-04-21T17:32:16.412Z,29.39
2019-04-21T17:34:50.058Z,30.48
2019-04-21T17:37:25.429Z,30.72
2019-04-21T17:39:59.087Z,30.81
2019-04-21T17:42:41.064Z,29.54
2019-04-21T17:45:08.942Z,31.51
2019-04-21T17:47:48.689Z,31.51
2019-04-21T17:50:36.009Z,31.97
2019-04-21T17:53:13.012Z,31.97
2019-04-21T17:55:54.207Z,33.79
2019-04-21T17:58:34.195Z,32.63
2019-04-21T18:01:19.365Z,31.75
2019-04-21T18:06:19.431Z,33.51
2019-04-21T18:09:03.354Z,33.51
2019-04-21T18:11:29.114Z,33.27
2019-04-21T18:13:51.420Z,33.33
2019-04-21T18:16:33.643Z,34.67
2019-04-21T18:18:59.124Z,32.45
2019-04-21T18:21:46.942Z,33.66
2019-04-21T18:24:22.697Z,34.50
2019-04-21T18:26:57.310Z,33.23
2019-04-21T18:29:29.646Z,33.33
2019-04-21T18:32:01.153Z,34.21
2019-04-21T18:35:00.408Z,34.30
2019-04-21T18:38:09.970Z,33.83
2019-04-21T18:40:37.103Z,34.40
2019-04-21T18:43:50.236Z,34.40
2019-04-21T18:46:25.927Z,35.56
2019-04-21T18:48:53.435Z,35.59
2019-04-21T18:51:34.652Z,35.39
2019-04-21T18:54:26.895Z,35.17
2019-04-21T18:56:51.464Z,35.54
2019-04-21T18:59:14.176Z,35.38
2019-04-21T19:01:54.936Z,36.86
2019-04-21T19:04:25.542Z,36.01
2019-04-21T19:07:06.659Z,36.25
2019-04-21T19:10:14.384Z,37.25
2019-04-21T19:12:35.323Z,37.25
2019-04-21T19:14:58.019Z,37.02
2019-04-21T19:22:49.867Z,37.17
2019-04-21T19:25:27.013Z,38.06
2019-04-21T19:27:59.035Z,36.95
2019-04-21T19:30:50.796Z,37.29
2019-04-21T19:33:16.821Z,37.26
2019-04-21T19:35:35.272Z,37.41
2019-04-21T19:38:10.896Z,37.45
2019-04-21T19:41:01.942Z,36.45
2019-04-21T19:43:44.210Z,36.81
2019-04-21T19:46:13.895Z,36.81
2019-04-21T19:48:54.070Z,37.64
2019-04-21T19:51:24.414Z,37.83
2019-04-21T19:53:56.022Z,37.39
2019-04-21T19:56:25.932Z,37.21
2019-04-21T19:59:01.286Z,35.88
2019-04-21T20:01:35.097Z,37.69
2019-04-21T20:04:10.638Z,37.88
2019-04-21T20:06:58.424Z,37.83
2019-04-21T20:09:41.974Z,38.34
2019-04-21T20:12:23.838Z,37.60
2019-04-21T20:14:59.437Z,36.91
2019-04-21T20:17:24.416Z,37.23
2019-04-21T20:19:42.510Z,37.83
2019-04-21T20:22:14.739Z,38.06
2019-04-21T20:24:53.928Z,38.48
2019-04-21T20:27:36.363Z,37.50
2019-04-21T20:30:16.064Z,36.81
2019-04-21T20:33:31.862Z,38.32
2019-04-21T20:35:35.214Z,36.23
2019-04-21T20:40:32.545Z,37.51
2019-04-21T20:43:19.288Z,37.51
2019-04-21T20:45:54.115Z,38.44
2019-04-21T20:48:13.843Z,37.95
2019-04-21T20:51:00.309Z,37.66
2019-04-21T20:53:31.317Z,37.66
2019-04-21T20:56:01.137Z,38.19
2019-04-21T20:58:45.280Z,37.83
2019-04-21T21:01:32.680Z,37.58
2019-04-21T21:03:51.821Z,37.96
2019-04-21T21:06:26.410Z,37.53
2019-04-21T21:09:01.639Z,37.88
2019-04-21T21:11:43.391Z,37.88
2019-04-21T21:14:11.702Z,37.62
2019-04-21T21:16:50.383Z,37.52
2019-04-21T21:19:29.100Z,37.63
2019-04-21T21:21:50.755Z,37.38
2019-04-21T21:24:36.366Z,37.24
2019-04-21T21:27:05.519Z,37.58
2019-04-21T21:29:33.322Z,37.52
2019-04-21T21:32:16.221Z,38.02
2019-04-21T21:34:45.395Z,36.79
2019-04-21T21:37:26.855Z,37.99
2019-04-21T21:39:57.923Z,37.99
2019-04-21T21:42:11.314Z,37.96
2019-04-21T21:44:49.546Z,37.06
2019-04-21T21:47:27.998Z,37.65
2019-04-21T21:50:00.777Z,37.23
2019-04-21T21:52:39.831Z,37.27
2019-04-21T21:54:59.327Z,37.32
2019-04-21T21:57:32.939Z,37.80
2019-04-21T22:00:12.322Z,37.03
2019-04-21T22:02:47.873Z,36.78
2019-04-21T22:05:21.915Z,36.55
2019-04-21T22:07:48.705Z,37.69
2019-04-21T22:10:20.291Z,37.13
2019-04-21T22:12:59.772Z,36.68
2019-04-21T22:15:30.343Z,36.74
2019-04-21T22:18:16.755Z,36.94
2019-04-21T22:20:53.781Z,37.29
2019-04-21T22:23:13.828Z,36.38
2019-04-21T22:25:45.370Z,36.38
2019-04-21T22:28:17.784Z,35.49
2019-04-21T22:30:53.083Z,36.59
2019-04-21T22:33:25.769Z,37.03
2019-04-21T22:36:10.009Z,37.27
2019-04-21T22:38:47.627Z,37.13
2019-04-21T22:41:18.960Z,37.39
2019-04-21T22:43:44.532Z,36.56
2019-04-21T22:46:15.542Z,37.06
2019-04-21T22:48:55.932Z,37.09
2019-04-21T22:51:30.304Z,37.09
2019-04-21T22:53:59.513Z,37.62
2019-04-21T22:56:33.761Z,37.62
2019-04-21T22:59:10.958Z,36.42
2019-04-21T23:01:42.491Z,36.67
2019-04-21T23:04:14.100Z,37.27
2019-04-21T23:06:49.956Z,36.89
2019-04-21T23:09:22.574Z,36.92
2019-04-21T23:11:57.285Z,36.92
2019-04-21T23:14:28.092Z,37.31
2019-04-21T23:17:24.266Z,36.78
2019-04-21T23:19:46.229Z,36.79
2019-04-21T23:22:31.359Z,37.21
2019-04-21T23:25:03.078Z,37.21
2019-04-21T23:27:34.339Z,37.10
2019-04-21T23:30:23.918Z,36.54
2019-04-21T23:32:37.450Z,36.82
2019-04-21T23:35:09.071Z,37.29
2019-04-21T23:37:34.146Z,37.42
2019-04-21T23:40:12.721Z,37.25
2019-04-21T23:42:42.447Z,35.59
2019-04-21T23:45:14.119Z,37.03
2019-04-21T23:47:57.914Z,36.91
2019-04-21T23:50:33.027Z,37.07
2019-04-21T23:52:55.417Z,37.07
2019-04-21T23:55:29.069Z,36.87
2019-04-21T23:58:08.116Z,36.87
